Terminal Aerodrome Forecast
Issued by NWS Pittsburgh, PA

Home | Current Version | Previous Version | Text Only | Print | Product List | Glossary On
Versions: 1 2 3 4 5 6 7 8 9 10 11 12 13 14 15 16 17 18 19 20 21 22 23 24 25 26 27 28
000
FTUS41 KPBZ 011700
TAFPIT
TAF
KPIT 011730Z 0118/0224 20009KT 2SM -SNRA SCT006 OVC016
      TEMPO 0118/0120 1SM -SN OVC006
     FM012000 24008KT 3SM -SNRA SCT008 OVC012
      TEMPO 0120/0123 2SM -SNRA OVC008
     FM020200 28006KT 3SM -SN OVC008
     FM020700 28010KT 6SM -SN OVC020
     FM021300 27010KT P6SM OVC025=

USA.gov is the U.S. government's official web portal to all federal, state and local government web resources and services.